Time;durP1;ratioP1;P1;durP2;ratioP2;P2;SDS_P1;SDS_P2;PMS_P1;PMS_P2;Temp;Humidity;BMP_temperature;BMP_pressure;BME280_temperature;BME280_humidity;BME280_pressure;Samples;Min_cycle;Max_cycle;Signal;HPM_P1;HPM_P2
2022/01/31 00:00:45;;;;;;;14.93;5.60;;;;;;;3.07;95.03;101554.81;5113863;28;20072;-65
2022/01/31 00:03:11;;;;;;;20.73;6.70;;;;;;;3.05;95.26;101538.44;5113628;28;20106;-65
2022/01/31 00:05:36;;;;;;;14.07;5.83;;;;;;;3.06;95.28;101519.72;5113656;28;20032;-65
2022/01/31 00:08:01;;;;;;;16.97;5.90;;;;;;;3.04;95.79;101497.34;5113922;28;20023;-65
2022/01/31 00:10:31;;;;;;;16.97;6.00;;;;;;;3.06;95.40;101480.44;5113952;28;20023;-65
2022/01/31 00:15:23;;;;;;;18.53;5.73;;;;;;;3.05;95.95;101456.47;5113857;28;20036;-65
2022/01/31 00:17:49;;;;;;;15.43;5.87;;;;;;;3.04;95.82;101454.69;5113345;28;20061;-65
2022/01/31 00:20:14;;;;;;;14.17;4.97;;;;;;;3.05;96.00;101451.34;5113647;28;20023;-64
2022/01/31 00:22:40;;;;;;;14.23;5.30;;;;;;;3.06;95.90;101440.31;5113583;28;20027;-65
2022/01/31 00:25:05;;;;;;;17.17;5.80;;;;;;;3.06;96.88;101431.75;5113709;28;20156;-65
2022/01/31 00:27:31;;;;;;;16.13;5.23;;;;;;;3.05;96.69;101429.97;5112906;28;20028;-65
2022/01/31 00:29:56;;;;;;;15.83;6.00;;;;;;;3.06;97.33;101432.63;5113331;28;20102;-64
2022/01/31 00:32:21;;;;;;;13.30;4.93;;;;;;;3.08;97.38;101404.56;5113550;28;20015;-64
2022/01/31 00:34:47;;;;;;;17.43;5.17;;;;;;;3.08;97.42;101397.78;5112872;28;20039;-65
2022/01/31 00:37:12;;;;;;;18.57;6.40;;;;;;;3.10;98.24;101391.09;5113174;28;20471;-65
2022/01/31 00:39:37;;;;;;;20.93;5.73;;;;;;;3.11;98.77;101362.13;5112502;28;20395;-65
2022/01/31 00:42:05;;;;;;;13.57;5.13;;;;;;;3.15;98.94;101368.38;5111697;28;20523;-65
2022/01/31 00:44:54;;;;;;;18.30;5.67;;;;;;;3.16;99.52;101357.34;5111848;28;20019;-65
2022/01/31 00:47:23;;;;;;;17.77;5.23;;;;;;;3.14;100.00;101328.19;5112034;28;20135;-65
2022/01/31 00:49:54;;;;;;;17.20;6.20;;;;;;;3.14;100.00;101320.50;5112904;28;20043;-65
2022/01/31 00:52:20;;;;;;;;;;;;;;;3.10;100.00;101314.25;5113217;28;20015;-65
2022/01/31 00:54:46;;;;;;;15.27;5.20;;;;;;;3.03;100.00;101291.56;5113234;28;19934;-65
2022/01/31 00:57:11;;;;;;;16.33;5.90;;;;;;;2.99;100.00;101280.22;5111005;28;20031;-65
2022/01/31 00:59:36;;;;;;;17.43;5.00;;;;;;;2.98;100.00;101290.34;5112104;28;20031;-66
2022/01/31 01:02:02;;;;;;;14.77;5.97;;;;;;;2.93;100.00;101289.16;5112851;28;20034;-65
2022/01/31 01:04:27;;;;;;;16.47;5.73;;;;;;;2.91;100.00;101270.22;5111947;28;20023;-65
2022/01/31 01:06:53;;;;;;;18.10;6.27;;;;;;;2.91;100.00;101265.09;5112395;28;20039;-65
2022/01/31 01:09:18;;;;;;;15.30;6.43;;;;;;;2.86;100.00;101245.19;5112619;28;20035;-65
2022/01/31 01:11:43;;;;;;;14.40;5.63;;;;;;;2.81;100.00;101249.09;5111344;28;20069;-65
2022/01/31 01:14:09;;;;;;;16.67;6.30;;;;;;;2.81;100.00;101243.97;5112322;28;20053;-65
2022/01/31 01:16:34;;;;;;;22.10;6.40;;;;;;;2.81;100.00;101233.72;5112598;28;20023;-64
2022/01/31 01:18:59;;;;;;;19.13;6.67;;;;;;;2.80;100.00;101221.72;5112443;28;20024;-64
2022/01/31 01:21:25;;;;;;;20.00;6.90;;;;;;;2.78;100.00;101215.59;5112310;28;20487;-65
2022/01/31 01:23:51;;;;;;;20.30;7.00;;;;;;;2.77;100.00;101208.69;5112441;28;20027;-65
2022/01/31 01:26:16;;;;;;;16.30;6.80;;;;;;;2.75;100.00;101197.47;5112495;28;20073;-64
2022/01/31 01:28:44;;;;;;;18.23;8.13;;;;;;;2.74;100.00;101175.22;5110521;28;20077;-65
2022/01/31 01:31:10;;;;;;;18.17;7.37;;;;;;;2.74;100.00;101170.09;5112220;28;20106;-65
2022/01/31 01:33:39;;;;;;;16.93;7.70;;;;;;;2.73;100.00;101156.44;5112248;28;20102;-65
2022/01/31 01:36:06;;;;;;;21.20;6.93;;;;;;;2.73;100.00;101147.84;5110711;28;20035;-65
2022/01/31 01:38:31;;;;;;;23.33;8.40;;;;;;;2.76;100.00;101155.72;5111771;28;20110;-65
2022/01/31 01:40:59;;;;;;;19.67;8.03;;;;;;;2.73;100.00;101129.94;5111048;28;20131;-65
2022/01/31 01:43:26;;;;;;;23.43;7.97;;;;;;;2.75;100.00;101131.78;5112017;28;20475;-65
2022/01/31 01:45:53;;;;;;;20.90;7.47;;;;;;;2.78;100.00;101123.44;5112092;28;20502;-64
2022/01/31 01:48:19;;;;;;;23.33;8.23;;;;;;;2.81;100.00;101115.97;5112215;28;20041;-65
2022/01/31 01:50:44;;;;;;;20.87;8.40;;;;;;;2.82;100.00;101102.41;5111768;28;20577;-65
2022/01/31 01:53:12;;;;;;;25.47;8.53;;;;;;;2.83;100.00;101095.59;5111637;28;20043;-65
2022/01/31 01:55:38;;;;;;;24.87;8.10;;;;;;;2.83;100.00;101086.25;5111683;28;20027;-65
2022/01/31 01:58:05;;;;;;;22.10;8.23;;;;;;;2.84;100.00;101077.78;5111413;28;20159;-65
2022/01/31 02:00:49;;;;;;;26.73;8.80;;;;;;;2.86;100.00;101059.97;5111695;28;20260;-65
2022/01/31 02:03:14;;;;;;;24.53;8.67;;;;;;;2.90;100.00;101045.72;5111313;28;20016;-65
2022/01/31 02:05:40;;;;;;;24.67;8.40;;;;;;;2.93;100.00;101043.34;5111885;28;20034;-65
2022/01/31 02:08:06;;;;;;;21.03;8.17;;;;;;;2.95;100.00;101031.53;5111378;28;20432;-65
2022/01/31 02:10:31;;;;;;;19.97;8.33;;;;;;;2.96;100.00;101030.75;5111575;28;20112;-65
2022/01/31 02:13:07;;;;;;;16.73;7.77;;;;;;;2.98;100.00;101022.41;5111381;28;20557;-65
2022/01/31 02:15:32;;;;;;;16.73;8.27;;;;;;;3.01;100.00;101014.00;5111308;28;20039;-65
2022/01/31 02:17:58;;;;;;;18.93;7.77;;;;;;;3.04;100.00;101009.06;5110947;28;20019;-64
2022/01/31 02:20:23;;;;;;;20.97;8.00;;;;;;;3.04;100.00;100995.41;5110825;28;20504;-65
2022/01/31 02:22:49;;;;;;;15.93;7.40;;;;;;;3.06;100.00;100989.59;5111120;28;20023;-65
2022/01/31 02:25:15;;;;;;;18.40;9.17;;;;;;;3.08;100.00;100987.13;5109883;28;20027;-65
2022/01/31 02:27:40;;;;;;;18.03;8.03;;;;;;;3.11;100.00;100989.91;5111467;28;20034;-65
2022/01/31 02:30:08;;;;;;;16.50;7.80;;;;;;;3.12;100.00;100999.34;5111192;28;20307;-65
2022/01/31 02:32:34;;;;;;;21.27;8.07;;;;;;;3.14;100.00;101000.34;5109555;28;20034;-65
2022/01/31 02:35:00;;;;;;;18.93;8.93;;;;;;;3.18;100.00;101009.09;5110907;27;20024;-65
2022/01/31 02:37:25;;;;;;;14.87;7.13;;;;;;;3.19;100.00;101016.88;5110986;28;20420;-65
2022/01/31 02:39:51;;;;;;;19.27;8.40;;;;;;;3.22;100.00;101011.09;5109884;28;20402;-65
2022/01/31 02:42:16;;;;;;;16.97;7.70;;;;;;;3.23;100.00;101002.59;5110666;28;20375;-65
2022/01/31 02:44:45;;;;;;;18.57;9.10;;;;;;;3.26;100.00;100987.44;5110743;28;20027;-64
2022/01/31 02:47:15;;;;;;;15.13;8.30;;;;;;;3.29;100.00;100977.38;5110701;28;20127;-65
2022/01/31 02:49:56;;;;;;;18.47;10.50;;;;;;;3.31;100.00;100969.81;5110673;28;20012;-65
2022/01/31 02:52:22;;;;;;;16.15;9.40;;;;;;;3.33;100.00;100963.97;5110468;28;20031;-65
2022/01/31 02:54:48;;;;;;;12.17;8.23;;;;;;;3.35;100.00;100964.06;5110976;28;20019;-65
2022/01/31 02:57:13;;;;;;;16.10;9.07;;;;;;;3.39;100.00;100958.34;5110451;28;20059;-65
2022/01/31 02:59:38;;;;;;;14.37;9.30;;;;;;;3.42;100.00;100947.44;5110451;28;20031;-66
2022/01/31 03:02:06;;;;;;;17.03;10.23;;;;;;;3.44;100.00;100940.69;5110379;28;20027;-65
2022/01/31 03:04:31;;;;;;;11.50;9.50;;;;;;;3.47;100.00;100936.66;5110655;28;20032;-65
2022/01/31 03:06:56;;;;;;;13.33;9.17;;;;;;;3.50;100.00;100930.84;5110280;28;20038;-65
2022/01/31 03:09:22;;;;;;;14.17;9.07;;;;;;;3.53;100.00;100935.25;5110604;28;20019;-65
2022/01/31 03:11:47;;;;;;;11.57;8.83;;;;;;;3.58;100.00;100936.47;5110432;28;20467;-65
2022/01/31 03:14:16;;;;;;;14.97;8.73;;;;;;;3.63;100.00;100931.63;5110426;28;20031;-65
2022/01/31 03:16:43;;;;;;;13.73;8.77;;;;;;;3.66;100.00;100917.31;5109266;28;20036;-65
2022/01/31 03:19:09;;;;;;;13.47;8.37;;;;;;;3.72;100.00;100927.06;5110177;28;20380;-65
2022/01/31 03:21:35;;;;;;;15.47;7.80;;;;;;;3.77;100.00;100920.53;5110101;28;20077;-65
2022/01/31 03:24:01;;;;;;;16.07;7.17;;;;;;;3.80;100.00;100905.31;5110265;27;20035;-65
2022/01/31 03:26:26;;;;;;;19.33;6.87;;;;;;;3.84;100.00;100906.41;5110171;28;20027;-65
2022/01/31 03:28:53;;;;;;;15.03;7.00;;;;;;;3.89;100.00;100911.78;5110149;28;20028;-65
2022/01/31 03:31:19;;;;;;;15.43;6.67;;;;;;;3.91;100.00;100911.09;5109772;28;20027;-65
2022/01/31 03:33:46;;;;;;;14.50;5.57;;;;;;;3.96;100.00;100906.25;5109669;28;20105;-65
2022/01/31 03:36:11;;;;;;;17.40;6.27;;;;;;;3.99;100.00;100895.31;5110059;28;20043;-66
2022/01/31 03:38:40;;;;;;;16.97;5.30;;;;;;;4.03;100.00;100897.25;5109880;28;20027;-65
2022/01/31 03:41:16;;;;;;;17.23;4.70;;;;;;;4.05;100.00;100893.09;5108440;28;20058;-65
2022/01/31 03:43:42;;;;;;;17.27;4.60;;;;;;;4.07;100.00;100877.00;5104148;28;20372;-65
2022/01/31 03:46:07;;;;;;;14.67;5.13;;;;;;;4.11;100.00;100882.31;5089563;28;20028;-65
2022/01/31 03:48:34;;;;;;;14.90;4.07;;;;;;;4.15;100.00;100874.00;5088138;28;20028;-65
2022/01/31 03:51:01;;;;;;;15.23;4.00;;;;;;;4.18;100.00;100872.50;5089590;28;20024;-65
2022/01/31 03:53:26;;;;;;;13.47;3.90;;;;;;;4.20;100.00;100872.59;5089461;28;20020;-65
2022/01/31 03:55:52;;;;;;;21.13;3.97;;;;;;;4.22;100.00;100873.56;5089863;28;20024;-65
2022/01/31 03:58:18;;;;;;;15.50;4.60;;;;;;;4.24;100.00;100869.44;5089562;28;20103;-65
2022/01/31 04:00:44;;;;;;;13.37;4.40;;;;;;;4.25;100.00;100878.88;5089656;28;20032;-66
2022/01/31 04:03:09;;;;;;;12.30;3.33;;;;;;;4.28;100.00;100879.03;5088146;28;20602;-66
2022/01/31 04:05:37;;;;;;;17.83;3.17;;;;;;;4.29;100.00;100878.28;5089486;28;20591;-66
2022/01/31 04:08:03;;;;;;;17.37;3.30;;;;;;;4.35;100.00;100872.63;5089373;28;20028;-65
2022/01/31 04:10:29;;;;;;;13.27;3.10;;;;;;;4.36;100.00;100865.78;5089564;28;20107;-65
2022/01/31 04:12:54;;;;;;;15.70;3.77;;;;;;;4.37;100.00;100863.31;5089277;28;20127;-65
2022/01/31 04:15:19;;;;;;;10.27;2.90;;;;;;;4.40;100.00;100867.75;5089349;28;20510;-65
2022/01/31 04:17:45;;;;;;;14.77;3.23;;;;;;;4.40;100.00;100862.59;5089183;28;20059;-65
2022/01/31 04:20:11;;;;;;;13.97;2.80;;;;;;;4.42;100.00;100861.03;5089681;28;20118;-65
2022/01/31 04:22:45;;;;;;;12.63;2.90;;;;;;;4.44;100.00;100874.84;5087822;28;20028;-66
2022/01/31 04:25:27;;;;;;;15.97;3.60;;;;;;;4.47;100.00;100854.47;5089302;28;20064;-64
2022/01/31 04:28:01;;;;;;;11.60;2.93;;;;;;;4.48;100.00;100857.94;5089239;28;20048;-65
2022/01/31 04:30:27;;;;;;;12.40;2.70;;;;;;;4.51;100.00;100866.69;5089727;28;20448;-65
2022/01/31 04:32:52;;;;;;;14.83;3.63;;;;;;;4.53;100.00;100848.81;5087741;28;20039;-65
2022/01/31 04:35:17;;;;;;;14.90;3.20;;;;;;;4.53;100.00;100849.66;5087976;28;20032;-65
2022/01/31 04:37:43;;;;;;;13.30;2.90;;;;;;;4.54;100.00;100851.44;5088925;28;20039;-66
2022/01/31 04:40:13;;;;;;;9.03;2.27;;;;;;;4.53;100.00;100839.41;5087500;28;20044;-65
2022/01/31 04:42:39;;;;;;;13.43;2.78;;;;;;;4.52;100.00;100842.78;5089166;28;20024;-65
2022/01/31 04:45:05;;;;;;;15.93;3.30;;;;;;;4.55;100.00;100857.47;5092391;28;20024;-65
2022/01/31 04:47:31;;;;;;;14.47;2.90;;;;;;;4.54;100.00;100838.63;5092752;28;20032;-65
2022/01/31 04:49:56;;;;;;;12.63;2.43;;;;;;;4.53;100.00;100857.38;5092980;28;20034;-65
2022/01/31 04:52:21;;;;;;;14.35;2.80;;;;;;;4.53;100.00;100856.50;5092872;28;20024;-65
2022/01/31 04:54:47;;;;;;;13.33;2.50;;;;;;;4.50;100.00;100859.75;5092506;28;20101;-65
2022/01/31 04:57:12;;;;;;;12.50;2.67;;;;;;;4.50;100.00;100859.75;5092462;28;20028;-65
2022/01/31 04:59:41;;;;;;;13.55;2.63;;;;;;;4.51;100.00;100855.53;5092273;28;20032;-65
2022/01/31 05:02:07;;;;;;;13.05;2.28;;;;;;;4.50;100.00;100854.63;5092709;28;20113;-66
2022/01/31 05:04:32;;;;;;;9.20;2.37;;;;;;;4.52;100.00;100847.91;5092557;28;20056;-65
2022/01/31 05:06:58;;;;;;;13.23;2.70;;;;;;;4.52;100.00;100834.19;5092441;28;20103;-66
2022/01/31 05:09:23;;;;;;;12.77;2.47;;;;;;;4.53;100.00;100839.41;5092484;28;20039;-65
2022/01/31 05:11:48;;;;;;;8.65;2.08;;;;;;;4.55;100.00;100832.69;5092051;28;20379;-66
2022/01/31 05:14:16;;;;;;;13.80;2.63;;;;;;;4.54;100.00;100835.16;5090872;28;20028;-66
2022/01/31 05:16:41;;;;;;;11.10;2.13;;;;;;;4.52;100.00;100832.50;5092089;28;20107;-65
2022/01/31 05:19:06;;;;;;;15.43;2.87;;;;;;;4.54;100.00;100817.19;5090745;28;20030;-66
2022/01/31 05:21:32;;;;;;;13.10;2.93;;;;;;;4.52;100.00;100819.69;5091831;28;20032;-65
2022/01/31 05:23:57;;;;;;;11.97;2.77;;;;;;;4.51;100.00;100817.91;5091687;28;20039;-65
2022/01/31 05:26:23;;;;;;;15.17;3.10;;;;;;;4.52;100.00;100804.28;5091854;28;20535;-65
2022/01/31 05:28:48;;;;;;;9.73;2.07;;;;;;;4.51;100.00;100815.34;5091977;28;20429;-65
2022/01/31 05:31:13;;;;;;;11.37;2.53;;;;;;;4.50;100.00;100808.44;5091858;28;20024;-64
2022/01/31 05:33:39;;;;;;;13.70;2.93;;;;;;;4.50;100.00;100784.44;5091834;28;20391;-65
2022/01/31 05:36:04;;;;;;;13.67;2.43;;;;;;;4.49;100.00;100778.44;5090620;28;20024;-65
2022/01/31 05:38:34;;;;;;;9.67;1.93;;;;;;;4.50;100.00;100782.78;5091725;28;20416;-66
2022/01/31 05:41:04;;;;;;;13.40;3.07;;;;;;;4.50;100.00;100776.75;5091590;28;20048;-65
2022/01/31 05:43:30;;;;;;;10.57;3.13;;;;;;;4.52;100.00;100772.59;5091490;28;20028;-65
2022/01/31 05:45:55;;;;;;;11.00;2.63;;;;;;;4.50;100.00;100780.19;5091548;28;20030;-66
2022/01/31 05:48:20;;;;;;;17.50;2.73;;;;;;;4.50;100.00;100769.94;5091442;28;20032;-65
2022/01/31 05:50:46;;;;;;;12.57;2.70;;;;;;;4.50;100.00;100782.78;5091496;28;20024;-65
2022/01/31 05:53:12;;;;;;;13.43;2.93;;;;;;;4.48;100.00;100774.09;5091191;28;20039;-65
2022/01/31 05:55:37;;;;;;;11.43;3.23;;;;;;;4.46;100.00;100780.84;5090515;28;20492;-65
2022/01/31 05:58:03;;;;;;;11.87;2.10;;;;;;;4.43;100.00;100780.66;5091319;28;20028;-66
2022/01/31 06:00:28;;;;;;;15.47;3.03;;;;;;;4.39;100.00;100784.72;5091080;28;20617;-66
2022/01/31 06:02:58;;;;;;;13.18;2.58;;;;;;;4.36;100.00;100809.34;5090077;28;20534;-66
2022/01/31 06:05:24;;;;;;;12.43;2.17;;;;;;;4.32;100.00;100818.53;5091584;28;20666;-66
2022/01/31 06:07:50;;;;;;;12.30;2.87;;;;;;;4.26;100.00;100834.50;5091247;28;20503;-66
2022/01/31 06:10:16;;;;;;;12.03;2.37;;;;;;;4.20;100.00;100813.59;5091074;28;20028;-65
2022/01/31 06:12:42;;;;;;;14.33;3.30;;;;;;;4.13;100.00;100821.72;5091199;28;20028;-66
2022/01/31 06:15:08;;;;;;;11.77;2.60;;;;;;;4.05;100.00;100818.72;5090916;28;20028;-66
2022/01/31 06:17:34;;;;;;;9.20;1.90;;;;;;;3.98;100.00;100812.34;5091128;28;20541;-65
2022/01/31 06:19:59;;;;;;;10.40;2.23;;;;;;;3.92;100.00;100814.56;5090917;28;20036;-65
2022/01/31 06:22:24;;;;;;;8.00;1.67;;;;;;;3.89;100.00;100820.38;5090543;28;20460;-65
2022/01/31 06:24:49;;;;;;;12.13;1.93;;;;;;;3.87;100.00;100801.44;5090583;28;20031;-65
2022/01/31 06:27:16;;;;;;;11.07;2.07;;;;;;;3.84;100.00;100802.19;5095497;28;20023;-65
2022/01/31 06:29:42;;;;;;;13.90;2.30;;;;;;;3.83;100.00;100797.81;5099782;28;20027;-65
2022/01/31 06:32:07;;;;;;;14.37;2.63;;;;;;;3.83;100.00;100804.66;5091117;28;20051;-65
2022/01/31 06:34:33;;;;;;;13.40;2.60;;;;;;;3.83;100.00;100795.25;5098294;28;20080;-66
2022/01/31 06:37:02;;;;;;;15.10;2.70;;;;;;;3.83;100.00;100802.94;5094913;28;20111;-65
2022/01/31 06:39:28;;;;;;;11.53;2.50;;;;;;;3.86;100.00;100801.38;5090722;28;20028;-65
2022/01/31 06:41:53;;;;;;;14.27;2.60;;;;;;;3.84;100.00;100794.47;5090865;28;20227;-66
2022/01/31 06:44:19;;;;;;;13.73;2.50;;;;;;;3.84;100.00;100794.47;5090513;28;20533;-66
2022/01/31 06:46:44;;;;;;;12.47;2.30;;;;;;;3.85;100.00;100797.91;5090109;28;20028;-65
2022/01/31 06:49:09;;;;;;;13.43;2.33;;;;;;;3.85;100.00;100805.59;5090668;28;20067;-65
2022/01/31 06:51:35;;;;;;;12.40;2.50;;;;;;;3.84;100.00;100801.28;5090119;28;20134;-65
2022/01/31 06:54:01;;;;;;;15.53;2.73;;;;;;;3.82;100.00;100793.50;5090231;28;20028;-65
2022/01/31 06:56:32;;;;;;;12.53;2.60;;;;;;;3.82;100.00;100801.19;5090310;28;20192;-65
2022/01/31 06:58:58;;;;;;;11.45;2.70;;;;;;;3.81;100.00;100801.97;5090275;28;20028;-65
2022/01/31 07:01:25;;;;;;;17.47;2.77;;;;;;;3.82;100.00;100808.00;5090055;28;20051;-65
2022/01/31 07:03:53;;;;;;;10.87;2.33;;;;;;;3.80;100.00;100795.09;5090210;28;20035;-65
2022/01/31 07:06:19;;;;;;;13.77;2.90;;;;;;;3.80;100.00;100792.53;5090007;28;20020;-65
2022/01/31 07:08:46;;;;;;;15.33;3.00;;;;;;;3.80;100.00;100801.88;5090169;28;20072;-65
2022/01/31 07:11:15;;;;;;;13.07;2.80;;;;;;;3.78;100.00;100799.22;5089950;28;20537;-66
2022/01/31 07:13:43;;;;;;;16.30;3.00;;;;;;;3.78;100.00;100796.66;5090051;28;20030;-65
2022/01/31 07:16:09;;;;;;;16.00;2.70;;;;;;;3.78;100.00;100799.22;5088682;28;20147;-65
2022/01/31 07:18:36;;;;;;;13.67;2.77;;;;;;;3.78;100.00;100798.38;5092288;28;20106;-65
2022/01/31 07:21:03;;;;;;;12.07;2.80;;;;;;;3.76;100.00;100799.97;5107329;28;20023;-66
2022/01/31 07:23:49;;;;;;;15.80;3.47;;;;;;;3.74;100.00;100787.06;5106969;27;20027;-65
2022/01/31 07:26:13;;;;;;;18.93;3.27;;;;;;;3.76;100.00;100782.00;5101021;28;20031;-66
2022/01/31 07:28:39;;;;;;;19.17;3.20;;;;;;;3.75;100.00;100781.13;5097960;28;20794;-65
2022/01/31 07:31:04;;;;;;;16.03;3.00;;;;;;;3.77;100.00;100797.47;5105863;28;20019;-65
2022/01/31 07:33:30;;;;;;;14.53;2.43;;;;;;;3.78;100.00;100803.50;5104056;28;20027;-65
2022/01/31 07:35:55;;;;;;;16.30;3.80;;;;;;;3.79;100.00;100798.47;5109172;27;20099;-66
2022/01/31 07:38:21;;;;;;;18.27;3.07;;;;;;;3.78;100.00;100819.75;5104346;28;20112;-65
2022/01/31 07:40:47;;;;;;;15.43;3.03;;;;;;;3.79;100.00;100811.28;5104835;28;20503;-66
2022/01/31 07:43:13;;;;;;;16.03;3.53;;;;;;;3.78;100.00;100824.88;5102978;28;20035;-65
2022/01/31 07:45:39;;;;;;;14.33;3.20;;;;;;;3.75;100.00;100824.69;5105291;28;20019;-66
2022/01/31 07:48:04;;;;;;;16.70;3.57;;;;;;;3.72;100.00;100819.41;5104587;28;20277;-65
2022/01/31 07:50:31;;;;;;;16.87;3.13;;;;;;;3.70;100.00;100820.97;5105555;28;20019;-66
2022/01/31 07:52:57;;;;;;;22.27;3.70;;;;;;;3.67;100.00;100815.69;5109059;28;20590;-65
2022/01/31 07:55:22;;;;;;;27.10;5.17;;;;;;;3.67;100.00;100820.81;5109127;28;20103;-65
2022/01/31 07:57:48;;;;;;;13.73;3.30;;;;;;;3.65;100.00;100823.25;5107986;28;20019;-65
2022/01/31 08:00:14;;;;;;;20.37;4.00;;;;;;;3.65;100.00;100827.50;5103968;28;20086;-65
2022/01/31 08:02:40;;;;;;;17.00;3.47;;;;;;;3.67;100.00;100820.81;5107745;28;20038;-65
2022/01/31 08:05:07;;;;;;;20.13;4.43;;;;;;;3.65;100.00;100827.50;5109365;28;20024;-65
2022/01/31 08:07:33;;;;;;;25.50;4.17;;;;;;;3.66;100.00;100826.69;5108065;28;20020;-65
2022/01/31 08:10:01;;;;;;;20.03;3.63;;;;;;;3.67;100.00;100823.38;5109671;28;20538;-64
2022/01/31 08:12:26;;;;;;;19.83;4.23;;;;;;;3.67;100.00;100815.69;5108595;28;20019;-65
2022/01/31 08:14:51;;;;;;;14.97;3.70;;;;;;;3.67;100.00;100816.53;5108915;28;20031;-65
2022/01/31 08:17:17;;;;;;;16.80;3.80;;;;;;;3.69;100.00;100824.31;5108032;28;20025;-65
2022/01/31 08:19:42;;;;;;;18.23;3.30;;;;;;;3.69;100.00;100808.94;5111795;28;20041;-65
2022/01/31 08:22:08;;;;;;;24.30;4.73;;;;;;;3.69;100.00;100830.34;5110555;28;20027;-65
2022/01/31 08:24:34;;;;;;;13.40;3.43;;;;;;;3.72;100.00;100834.78;5112141;28;20066;-65
2022/01/31 08:26:59;;;;;;;17.30;3.50;;;;;;;3.71;100.00;100833.00;5111456;28;20027;-65
2022/01/31 08:29:34;;;;;;;22.00;4.37;;;;;;;3.73;100.00;100831.41;5112689;28;20090;-65
2022/01/31 08:32:05;;;;;;;17.40;3.80;;;;;;;3.72;100.00;100829.66;5113340;28;20051;-65
2022/01/31 08:35:48;;;;;;;20.38;4.45;;;;;;;3.72;100.00;100829.66;5113588;28;20473;-66
2022/01/31 08:37:19;;;;;;;19.30;4.43;;;;;;;3.74;100.00;100830.63;5111485;28;20024;-65
2022/01/31 08:39:44;;;;;;;19.70;4.23;;;;;;;3.74;100.00;100837.44;5111511;28;20073;-66
2022/01/31 08:42:10;;;;;;;19.27;3.93;;;;;;;3.74;100.00;100838.31;5112069;27;20038;-65
2022/01/31 08:44:35;;;;;;;19.00;4.17;;;;;;;3.74;100.00;100851.13;5112662;28;20023;-66
2022/01/31 08:47:02;;;;;;;17.23;4.20;;;;;;;3.72;100.00;100852.72;5112604;28;20536;-65
2022/01/31 08:49:28;;;;;;;18.83;3.33;;;;;;;3.73;100.00;100844.22;5111911;28;20054;-65
2022/01/31 08:51:53;;;;;;;23.33;4.43;;;;;;;3.75;100.00;100837.50;5112768;28;20459;-65
2022/01/31 08:54:20;;;;;;;23.10;4.13;;;;;;;3.75;100.00;100840.06;5110995;28;20058;-65
2022/01/31 08:56:45;;;;;;;21.17;4.17;;;;;;;3.78;100.00;100839.38;5112008;28;20046;-65
2022/01/31 08:59:18;;;;;;;21.73;4.10;;;;;;;3.79;100.00;100854.84;5112310;28;20031;-65
2022/01/31 09:01:51;;;;;;;21.60;4.43;;;;;;;3.80;100.00;100873.66;5112361;28;20069;-65
2022/01/31 09:04:31;;;;;;;16.77;3.40;;;;;;;3.81;100.00;100837.88;5112513;28;20031;-65
2022/01/31 09:06:57;;;;;;;21.90;4.13;;;;;;;3.81;100.00;100855.81;5112239;28;20028;-65
2022/01/31 09:09:23;;;;;;;19.03;4.00;;;;;;;3.79;100.00;100831.78;5112315;27;20030;-65
2022/01/31 09:11:49;;;;;;;19.97;3.93;;;;;;;3.79;100.00;100859.09;5111400;28;20065;-65
2022/01/31 09:14:14;;;;;;;17.97;3.77;;;;;;;3.77;100.00;100869.25;5111942;28;20031;-65
2022/01/31 09:16:39;;;;;;;13.83;3.50;;;;;;;3.75;100.00;100863.16;5111280;27;20015;-65
2022/01/31 09:19:05;;;;;;;20.73;3.83;;;;;;;3.75;100.00;100841.75;5112106;28;20092;-65
2022/01/31 09:21:30;;;;;;;18.20;3.30;;;;;;;3.74;100.00;100851.13;5112244;28;20376;-65
2022/01/31 09:23:56;;;;;;;15.93;3.57;;;;;;;3.76;100.00;100861.47;5112087;28;20031;-65
2022/01/31 09:26:23;;;;;;;17.47;4.27;;;;;;;3.76;100.00;100851.22;5111987;28;20035;-65
2022/01/31 09:28:52;;;;;;;24.03;4.57;;;;;;;3.77;100.00;100861.56;5112385;28;20106;-65
2022/01/31 09:31:18;;;;;;;20.67;4.87;;;;;;;3.76;100.00;100857.22;5111011;28;20037;-65
2022/01/31 09:33:43;;;;;;;25.23;3.90;;;;;;;3.78;100.00;100871.00;5112291;28;20023;-65
2022/01/31 09:36:08;;;;;;;21.67;4.43;;;;;;;3.79;100.00;100867.69;5110791;27;20039;-66
2022/01/31 09:38:34;;;;;;;21.70;4.30;;;;;;;3.79;100.00;100849.72;5111818;28;20031;-66
2022/01/31 09:40:59;;;;;;;23.77;4.23;;;;;;;3.81;100.00;100845.56;5110537;27;20387;-65
2022/01/31 09:48:40;;;;;;;19.37;4.40;;;;;;;3.84;100.00;100899.59;5019350;28;20477;-65
2022/01/31 09:51:18;;;;;;;20.73;3.93;;;;;;;3.87;100.00;100905.72;5026228;28;20037;-65
2022/01/31 09:53:47;;;;;;;32.57;4.50;;;;;;;3.88;100.00;100902.34;5025387;28;20106;-65
2022/01/31 09:56:15;;;;;;;18.50;4.27;;;;;;;3.85;100.00;100890.22;5027041;28;20049;-65
2022/01/31 09:58:42;;;;;;;25.43;4.70;;;;;;;3.84;100.00;100912.44;5027993;28;20083;-66
2022/01/31 10:01:12;;;;;;;21.90;4.43;;;;;;;3.83;100.00;100920.03;5027212;28;20120;-66
2022/01/31 10:03:50;;;;;;;21.20;4.10;;;;;;;3.79;100.00;100928.31;5028273;28;20052;-65
2022/01/31 10:06:24;;;;;;;25.70;5.07;;;;;;;3.75;100.00;100936.59;5026747;28;20359;-65
2022/01/31 10:09:13;;;;;;;26.83;4.67;;;;;;;3.76;100.00;100943.50;5026406;28;20119;-65
2022/01/31 10:11:49;;;;;;;22.83;4.37;;;;;;;3.76;100.00;100938.38;5027021;28;20018;-65
2022/01/31 10:17:03;;;;;;;26.73;5.83;;;;;;;3.75;100.00;100922.13;5027456;28;20436;-65
2022/01/31 10:19:29;;;;;;;24.67;5.20;;;;;;;3.77;100.00;100935.91;5027298;28;20053;-65
2022/01/31 10:21:58;;;;;;;32.00;5.90;;;;;;;3.78;100.00;100934.25;5026770;28;20075;-65
2022/01/31 10:24:25;;;;;;;32.37;5.83;;;;;;;3.79;100.00;100947.16;5027506;28;20033;-65
2022/01/31 10:26:51;;;;;;;37.43;5.87;;;;;;;3.83;100.00;100953.34;5104900;27;20052;-65
2022/01/31 10:29:19;;;;;;;32.83;6.10;;;;;;;3.86;100.00;100955.19;5109951;27;20023;-66
2022/01/31 10:32:05;;;;;;;33.63;6.53;;;;;;;3.88;100.00;100974.13;5108287;27;20110;-65
2022/01/31 10:34:34;;;;;;;28.80;6.40;;;;;;;3.88;100.00;100982.72;5109739;28;20035;-65
2022/01/31 10:37:08;;;;;;;38.70;7.80;;;;;;;3.91;100.00;100979.44;5109632;28;20517;-65
2022/01/31 10:50:48;;;;;;;30.20;6.83;;;;;;;3.96;100.00;100978.94;5110495;28;20039;-64
2022/01/31 10:53:14;;;;;;;30.37;6.77;;;;;;;3.96;100.00;100980.63;5109460;28;20055;-65
2022/01/31 10:55:39;;;;;;;32.80;6.20;;;;;;;3.98;100.00;100991.84;5110346;28;20252;-64
2022/01/31 10:58:08;;;;;;;25.47;5.03;;;;;;;4.00;100.00;100989.38;5110451;28;20049;-64
2022/01/31 11:00:38;;;;;;;32.27;6.17;;;;;;;3.99;100.00;100978.25;5109778;28;20089;-65
2022/01/31 11:03:30;;;;;;;27.97;6.77;;;;;;;4.01;100.00;101007.44;5107754;27;20034;-64
2022/01/31 11:05:56;;;;;;;31.40;5.93;;;;;;;4.01;100.00;100997.16;5109907;28;20072;-64
2022/01/31 11:08:22;;;;;;;27.67;5.87;;;;;;;4.01;100.00;101012.56;5109130;28;20394;-65
2022/01/31 11:10:47;;;;;;;31.10;6.47;;;;;;;4.01;100.00;101007.44;5110344;28;20024;-65
2022/01/31 11:13:17;;;;;;;33.90;6.53;;;;;;;4.01;100.00;101002.28;5110003;28;20028;-65
2022/01/31 11:15:43;;;;;;;28.23;6.83;;;;;;;3.98;100.00;101012.38;5109683;28;20494;-65
2022/01/31 11:18:10;;;;;;;32.47;6.17;;;;;;;3.99;100.00;101024.44;5107897;28;20035;-65
2022/01/31 11:20:39;;;;;;;26.63;6.53;;;;;;;4.00;100.00;101038.09;5108694;28;20047;-65
2022/01/31 11:23:07;;;;;;;30.57;6.63;;;;;;;3.99;100.00;101034.69;5095261;28;20099;-65
2022/01/31 11:25:34;;;;;;;34.80;6.60;;;;;;;3.99;100.00;101039.81;5107372;28;20031;-65
2022/01/31 11:28:03;;;;;;;31.50;6.60;;;;;;;3.99;100.00;101028.66;5108248;28;20020;-65
2022/01/31 11:30:29;;;;;;;32.43;5.87;;;;;;;3.99;100.00;101042.38;5106231;28;20185;-65
2022/01/31 11:32:55;;;;;;;33.27;5.83;;;;;;;3.96;100.00;101048.19;5109629;28;20020;-64
2022/01/31 11:35:22;;;;;;;22.43;5.20;;;;;;;3.97;100.00;101037.13;5109490;28;20027;-65
2022/01/31 11:37:47;;;;;;;29.30;5.80;;;;;;;3.96;100.00;101037.03;5109451;28;20160;-65
2022/01/31 11:40:14;;;;;;;26.90;7.90;;;;;;;3.94;100.00;101036.94;5103767;28;20044;-65